createdAt,value
2023-04-08T00:01:24.843Z,10.60
2023-04-08T00:06:28.421Z,10.05
2023-04-08T00:11:33.654Z,9.93
2023-04-08T00:16:37.143Z,8.80
2023-04-08T00:21:40.801Z,10.75
2023-04-08T00:26:45.753Z,7.65
2023-04-08T00:36:52.410Z,7.47
2023-04-08T00:41:57.794Z,7.57
2023-04-08T00:47:01.447Z,7.72
2023-04-08T00:52:04.952Z,8.70
2023-04-08T00:57:10.016Z,9.15
2023-04-08T01:02:20.492Z,9.13
2023-04-08T01:07:29.072Z,7.95
2023-04-08T01:12:38.569Z,10.25
2023-04-08T01:17:43.486Z,9.45
2023-04-08T01:28:01.515Z,16.73
2023-04-08T01:33:06.964Z,11.32
2023-04-08T01:38:12.586Z,15.73
2023-04-08T01:43:19.348Z,17.67
2023-04-08T01:48:23.586Z,11.98
2023-04-08T01:53:27.136Z,9.10
2023-04-08T01:58:38.681Z,12.15
2023-04-08T02:03:45.801Z,11.38
2023-04-08T02:08:49.559Z,18.23
2023-04-08T02:13:55.558Z,14.50
2023-04-08T02:19:04.912Z,12.75
2023-04-08T02:24:11.650Z,13.98
2023-04-08T02:29:17.713Z,14.30
2023-04-08T02:34:23.270Z,13.02
2023-04-08T02:39:33.380Z,12.88
2023-04-08T02:44:38.364Z,8.48
2023-04-08T02:54:45.093Z,13.38
2023-04-08T02:59:49.941Z,19.48
2023-04-08T03:04:53.537Z,18.58
2023-04-08T03:09:57.104Z,17.00
2023-04-08T03:15:03.694Z,17.50
2023-04-08T03:20:08.548Z,11.30
2023-04-08T03:25:12.020Z,11.60
2023-04-08T03:30:18.318Z,10.23
2023-04-08T03:35:21.937Z,11.52
2023-04-08T03:40:25.680Z,11.25
2023-04-08T03:45:30.525Z,15.40
2023-04-08T03:50:34.153Z,9.63
2023-04-08T03:55:37.611Z,10.20
2023-04-08T04:00:42.450Z,7.32
2023-04-08T04:05:45.891Z,10.45
2023-04-08T04:10:49.338Z,9.18
2023-04-08T04:15:54.126Z,13.05
2023-04-08T04:20:57.600Z,11.63
2023-04-08T04:26:01.414Z,12.55
2023-04-08T04:31:06.450Z,9.38
2023-04-08T04:36:10.037Z,16.30
2023-04-08T04:41:13.557Z,14.70
2023-04-08T04:46:18.529Z,13.23
2023-04-08T04:51:22.001Z,16.60
2023-04-08T04:56:26.625Z,10.70
2023-04-08T05:01:31.737Z,11.73
2023-04-08T05:06:35.487Z,15.07
2023-04-08T05:11:39.577Z,9.57
2023-04-08T05:16:44.679Z,12.73
2023-04-08T05:21:48.118Z,9.32
2023-04-08T05:26:53.463Z,9.27
2023-04-08T05:31:58.380Z,14.65
2023-04-08T05:37:01.914Z,11.27
2023-04-08T05:42:05.765Z,11.60
2023-04-08T05:47:10.691Z,10.43
2023-04-08T05:52:14.259Z,11.55
2023-04-08T05:57:18.049Z,17.45
2023-04-08T06:02:23.116Z,17.65
2023-04-08T06:07:26.670Z,11.35
2023-04-08T06:12:30.233Z,11.43
2023-04-08T06:17:37.514Z,10.05
2023-04-08T06:22:41.219Z,13.93
2023-04-08T06:27:44.638Z,14.35
2023-04-08T06:32:49.572Z,15.80
2023-04-08T06:37:52.992Z,13.32
2023-04-08T06:42:56.629Z,15.05
2023-04-08T06:48:01.684Z,11.75
2023-04-08T06:53:05.204Z,14.30
2023-04-08T06:58:08.713Z,12.43
2023-04-08T07:03:13.706Z,13.35
2023-04-08T07:08:18.004Z,11.48
2023-04-08T07:13:23.772Z,14.55
2023-04-08T07:18:28.668Z,14.13
2023-04-08T07:23:32.127Z,9.75
2023-04-08T07:28:35.610Z,10.15
2023-04-08T07:33:40.525Z,9.45
2023-04-08T07:38:43.937Z,12.75
2023-04-08T07:43:47.537Z,9.35
2023-04-08T07:48:53.148Z,11.23
2023-04-08T07:53:57.204Z,9.98
2023-04-08T07:59:00.668Z,10.85
2023-04-08T08:04:06.004Z,10.15
2023-04-08T08:09:09.580Z,5.72
2023-04-08T08:14:14.042Z,5.70
2023-04-08T08:19:18.901Z,6.60
2023-04-08T08:24:22.726Z,9.48
2023-04-08T08:29:26.484Z,8.68
2023-04-08T08:34:31.909Z,7.57
2023-04-08T08:39:35.613Z,7.63
2023-04-08T08:49:44.334Z,7.35
2023-04-08T08:54:47.788Z,11.05
2023-04-08T08:59:51.475Z,7.45
2023-04-08T09:05:01.369Z,8.50
2023-04-08T09:10:07.368Z,5.88
2023-04-08T09:15:11.911Z,8.15
2023-04-08T09:20:17.042Z,6.70
2023-04-08T09:25:27.988Z,8.52
2023-04-08T09:30:33.891Z,5.95
2023-04-08T09:35:38.943Z,8.85
2023-04-08T09:40:44.534Z,13.80
2023-04-08T09:45:48.997Z,9.02
2023-04-08T09:55:59.341Z,11.77
2023-04-08T10:01:03.952Z,11.18
2023-04-08T10:11:15.971Z,11.90
2023-04-08T10:16:24.844Z,9.48
2023-04-08T10:21:42.684Z,10.23
2023-04-08T10:26:48.981Z,11.00
2023-04-08T10:31:53.054Z,13.27
2023-04-08T10:37:02.275Z,10.05
2023-04-08T10:42:09.733Z,11.52
2023-04-08T10:47:13.793Z,9.20
2023-04-08T10:52:20.136Z,11.10
2023-04-08T10:57:27.165Z,13.07
2023-04-08T11:02:34.994Z,10.23
2023-04-08T11:07:43.093Z,9.10
2023-04-08T11:12:47.102Z,13.50
2023-04-08T11:17:51.411Z,8.93
2023-04-08T11:22:56.629Z,11.38
2023-04-08T11:28:00.425Z,9.02
2023-04-08T11:33:04.078Z,13.93
2023-04-08T11:38:10.174Z,8.43
2023-04-08T11:43:15.542Z,15.68
2023-04-08T11:48:19.333Z,12.48
2023-04-08T11:53:27.195Z,14.77
2023-04-08T11:58:30.960Z,11.88
2023-04-08T12:03:34.564Z,9.43
2023-04-08T12:08:39.552Z,13.57
2023-04-08T12:13:42.982Z,19.05
2023-04-08T12:18:46.825Z,12.93
2023-04-08T12:23:52.502Z,13.53
2023-04-08T12:28:56.423Z,15.57
2023-04-08T12:33:59.953Z,18.17
2023-04-08T12:39:05.223Z,11.57
2023-04-08T12:44:08.632Z,16.10
2023-04-08T12:49:12.301Z,11.45
2023-04-08T12:54:17.326Z,13.15
2023-04-08T12:59:20.736Z,13.93
2023-04-08T13:04:24.176Z,14.95
2023-04-08T13:09:30.844Z,15.48
2023-04-08T13:14:34.348Z,13.93
2023-04-08T13:19:37.977Z,12.73
2023-04-08T13:24:43.144Z,11.65
2023-04-08T13:29:46.648Z,21.52
2023-04-08T13:34:50.113Z,16.13
2023-04-08T13:39:54.969Z,14.73
2023-04-08T13:44:58.623Z,11.40
2023-04-08T13:50:02.090Z,14.40
2023-04-08T13:55:09.610Z,15.32
2023-04-08T14:00:14.129Z,16.35
2023-04-08T14:05:17.748Z,11.15
2023-04-08T14:10:22.752Z,13.43
2023-04-08T14:15:26.333Z,13.57
2023-04-08T14:20:30.007Z,14.00
2023-04-08T14:25:34.960Z,12.38
2023-04-08T14:30:39.152Z,14.02
2023-04-08T14:35:42.762Z,15.00
2023-04-08T14:40:47.630Z,15.07
2023-04-08T14:45:51.749Z,13.25
2023-04-08T14:50:55.317Z,18.05
2023-04-08T14:56:00.150Z,13.38
2023-04-08T15:01:03.691Z,20.23
2023-04-08T15:06:07.462Z,14.32
2023-04-08T15:11:12.345Z,17.85
2023-04-08T15:16:15.948Z,14.48
2023-04-08T15:21:19.574Z,13.20
2023-04-08T15:26:24.612Z,12.93
2023-04-08T15:31:28.076Z,12.90
2023-04-08T15:36:32.310Z,16.38
2023-04-08T15:41:37.173Z,17.88
2023-04-08T15:46:40.742Z,13.98
2023-04-08T15:51:44.897Z,15.57
2023-04-08T15:56:49.950Z,16.13
2023-04-08T16:01:53.567Z,16.48
2023-04-08T16:06:57.212Z,19.02
2023-04-08T16:12:02.038Z,20.08
2023-04-08T16:17:05.835Z,15.48
2023-04-08T16:22:09.314Z,22.43
2023-04-08T16:27:14.284Z,29.48
2023-04-08T16:32:17.905Z,21.40
2023-04-08T16:37:21.408Z,17.80
2023-04-08T16:42:26.358Z,28.08
2023-04-08T16:47:29.939Z,26.65
2023-04-08T16:52:33.460Z,29.70
2023-04-08T16:57:38.371Z,18.08
2023-04-08T17:07:45.548Z,20.23
2023-04-08T17:12:50.517Z,20.53
2023-04-08T17:17:53.987Z,21.17
2023-04-08T17:22:57.466Z,21.80
2023-04-08T17:28:02.321Z,21.45
2023-04-08T17:38:09.087Z,30.98
2023-04-08T17:43:14.038Z,30.08
2023-04-08T17:48:17.715Z,38.72
2023-04-08T17:53:21.134Z,29.70
2023-04-08T17:58:26.495Z,38.08
2023-04-08T18:03:30.125Z,35.63
2023-04-08T18:08:33.744Z,44.22
2023-04-08T18:13:38.635Z,42.53
2023-04-08T18:18:42.296Z,36.78
2023-04-08T18:23:47.181Z,49.70
2023-04-08T18:33:55.165Z,49.70
2023-04-08T18:38:59.019Z,53.75
2023-04-08T18:44:04.264Z,63.53
2023-04-08T18:49:07.849Z,63.63
2023-04-08T18:54:11.270Z,54.60
2023-04-08T18:59:16.553Z,49.55
2023-04-08T19:04:20.076Z,52.63
2023-04-08T19:09:23.688Z,44.03
2023-04-08T19:14:28.529Z,48.25
2023-04-08T19:19:32.791Z,46.25
2023-04-08T19:24:36.823Z,39.95
2023-04-08T19:29:41.746Z,46.60
2023-04-08T19:34:45.155Z,38.90
2023-04-08T19:39:48.555Z,42.90
2023-04-08T19:44:53.381Z,46.35
2023-04-08T19:49:58.412Z,38.45
2023-04-08T19:55:02.536Z,37.83
2023-04-08T20:00:11.679Z,34.55
2023-04-08T20:05:17.505Z,36.38
2023-04-08T20:10:21.938Z,40.25
2023-04-08T20:15:26.881Z,34.83
2023-04-08T20:25:33.705Z,46.13
2023-04-08T20:30:38.723Z,45.63
2023-04-08T20:40:46.440Z,36.38
2023-04-08T20:45:51.249Z,47.35
2023-04-08T20:50:54.909Z,39.60
2023-04-08T20:55:58.483Z,50.55
2023-04-08T21:01:03.478Z,34.28
2023-04-08T21:11:10.154Z,34.25
2023-04-08T21:16:15.095Z,38.20
2023-04-08T21:26:22.390Z,36.85
2023-04-08T21:31:27.523Z,36.83
2023-04-08T21:41:35.024Z,44.63
2023-04-08T21:46:39.981Z,38.97
2023-04-08T21:56:46.758Z,36.83
2023-04-08T22:01:51.720Z,28.13
2023-04-08T22:06:55.253Z,30.17
2023-04-08T22:11:58.694Z,34.00
2023-04-08T22:17:04.648Z,35.33
2023-04-08T22:22:08.369Z,47.25
2023-04-08T22:27:11.843Z,36.53
2023-04-08T22:32:18.309Z,33.55
2023-04-08T22:37:22.005Z,43.50
2023-04-08T22:42:25.607Z,37.00
2023-04-08T22:47:30.515Z,31.55
2023-04-08T22:57:37.111Z,33.72
2023-04-08T23:02:42.026Z,46.97
2023-04-08T23:12:48.667Z,38.25
2023-04-08T23:17:53.665Z,28.98
2023-04-08T23:22:57.206Z,32.78
2023-04-08T23:28:01.768Z,34.05
2023-04-08T23:33:06.820Z,34.67
2023-04-08T23:43:13.560Z,33.30
2023-04-08T23:48:18.452Z,35.40
2023-04-08T23:58:25.214Z,32.53
